This is the latest recevied weather packets stored in our database for station/object K5YNC. If no packets are shown the sender has not sent any weather packets the latest 10 day(s).
| Time | Temp. | Humidity | Pressure | Rain* | Wind** | Luminosity | Snow |
|---|---|---|---|---|---|---|---|
| 1777861853 | 16.67° C | 64% | 1016.6 hPa | 0 mm | - | 0 W/m² | - |
| 1777861549 | 17.78° C | 61% | 1016.6 hPa | 0 mm | - | 0 W/m² | - |
| 1777861246 | 18.33° C | 59% | 1016.7 hPa | 0 mm | - | 0 W/m² | - |
| 1777860944 | 17.78° C | 58% | 1016.9 hPa | 0 mm | - | 0 W/m² | - |
| 1777860640 | 17.78° C | 59% | 1016.5 hPa | 0 mm | - | 0 W/m² | - |
| 1777860337 | 17.22° C | 64% | 1016.5 hPa | 0 mm | - | 0 W/m² | - |
| 1777860034 | 17.22° C | 65% | 1016.5 hPa | 0 mm | - | 0 W/m² | - |
| 1777859730 | 17.22° C | 64% | 1016.6 hPa | 0 mm | - | 0 W/m² | - |
| 1777859426 | 17.78° C | 60% | 1016.5 hPa | 0 mm | - | 0 W/m² | - |
| 1777859122 | 18.89° C | 60% | 1016.6 hPa | 0 mm | - | 0 W/m² | - |
| 1777858820 | 20° C | 55% | 1016.5 hPa | 0 mm | - | 0 W/m² | - |
| 1777858518 | 20° C | 51% | 1016.4 hPa | 0 mm | - | 0 W/m² | - |
| 1777858214 | 20° C | 51% | 1016.4 hPa | 0 mm | - | 0 W/m² | - |
| 1777857912 | 20° C | 52% | 1016.3 hPa | 0 mm | - | 1 W/m² | - |
| 1777857610 | 20.56° C | 51% | 1016.6 hPa | 0 mm | - | 1 W/m² | - |
| 1777857306 | 21.11° C | 49% | 1016.5 hPa | 0 mm | - | 3 W/m² | - |
| 1777857001 | 21.67° C | 48% | 1016.4 hPa | 0 mm | - | 5 W/m² | - |
| 1777856698 | 21.67° C | 46% | 1016.3 hPa | 0 mm | - | 7 W/m² | - |
| 1777856394 | 22.22° C | 45% | 1016.4 hPa | 0 mm | - | 11 W/m² | - |
| 1777856091 | 22.78° C | 44% | 1016.4 hPa | 0 mm | - | 13 W/m² | - |
| 1777855788 | 22.78° C | 43% | 1016.3 hPa | 0 mm | - | 16 W/m² | - |
| 1777855486 | 23.33° C | 41% | 1016.4 hPa | 0 mm | - | 18 W/m² | - |
| 1777855183 | 23.89° C | 40% | 1016.2 hPa | 0 mm | - | 21 W/m² | - |
| 1777854879 | 23.89° C | 40% | 1016.3 hPa | 0 mm | - | 24 W/m² | - |
| 1777854576 | 23.89° C | 38% | 1016.5 hPa | 0 mm | - | 29 W/m² | - |
* Rain latest hour (hover to see other rain measurements)
** Current wind speed in m/s (hover to see current wind gust speed)